GPS DATA

Mon Aug 20 20:24:49 2018 APRS[EA3ABN-7]Decoded GPS Auto: LAT(N4136.881) LONG(E00205.07) SPEED(0.0) RPT:214302
Mon Aug 20 20:25:48 2018 APRS[EA3ABN-7]Decoded GPS Auto: LAT(N4136.868) LONG(E00205.07) SPEED(0.0) RPT:214302
Mon Aug 20 20:26:49 2018 APRS[EA3ABN-7]Decoded GPS Auto: LAT(N4136.873) LONG(E00205.07) SPEED(0.5) RPT:214302
Mon Aug 20 20:27:48 2018 APRS[EA3ABN-7]Decoded GPS Auto: LAT(N4136.877) LONG(E00205.07) SPEED(0.0) RPT:214302
Mon Aug 20 20:28:48 2018 APRS[EA3ABN-7]Decoded GPS Auto: LAT(N4136.871) LONG(E00205.08) SPEED(0.0) RPT:214302
Mon Aug 20 20:29:48 2018 APRS[EA3ABN-7]Decoded GPS Auto: LAT(N4136.873) LONG(E00205.07) SPEED(0.0) RPT:214302
Mon Aug 20 20:30:49 2018 APRS[EA3ABN-7]Decoded GPS Auto: LAT(N4136.873) LONG(E00205.07) SPEED(0.0) RPT:214302
Mon Aug 20 20:31:48 2018 APRS[EA3ABN-7]Decoded GPS Auto: LAT(N4136.872) LONG(E00205.07) SPEED(0.0) RPT:214302
Mon Aug 20 20:32:50 2018 APRS[EA3ABN-7]Decoded GPS Auto: LAT(A20324420) LONG(818N4136.) SPEED(29E) RPT:214302
Mon Aug 20 20:33:50 2018 APRS[EA3ABN-7]Decoded GPS Auto: LAT(N4136.870) LONG(E00205.08) SPEED(0.0) RPT:214302
Mon Aug 20 20:34:49 2018 APRS[EA3ABN-7]Decoded GPS Auto: LAT(N4136.871) LONG(E00205.08) SPEED(0.0) RPT:214302
Mon Aug 20 20:35:49 2018 APRS[EA3ABN-7]Decoded GPS Auto: LAT(N4136.873) LONG(E00205.08) SPEED(0.0) RPT:214302
Mon Aug 20 20:36:48 2018 APRS[EA3ABN-7]Decoded GPS Auto: LAT(N4136.872) LONG(E00205.07) SPEED(0.0) RPT:214302
Mon Aug 20 20:37:49 2018 APRS[EA3ABN-7]Decoded GPS Auto: LAT(N4136.871) LONG(E00205.08) SPEED(0.0) RPT:214302
Mon Aug 20 20:38:49 2018 APRS[EA3ABN-7]Decoded GPS Auto: LAT(N4136.872) LONG(E00205.08) SPEED(0.0) RPT:214302
Mon Aug 20 20:39:48 2018 APRS[EA3ABN-7]Decoded GPS Auto: LAT(N4136.870) LONG(E00205.08) SPEED(0.0) RPT:214302
Mon Aug 20 20:40:48 2018 APRS[EA3ABN-7]Decoded GPS Auto: LAT(N4136.868) LONG(E00205.08) SPEED(0.0) RPT:214302
Mon Aug 20 20:41:49 2018 APRS[EA3ABN-7]Decoded GPS Auto: LAT(N4136.872) LONG(E00205.08) SPEED(0.0) RPT:214302
Mon Aug 20 20:42:48 2018 APRS[EA3ABN-7]Decoded GPS Auto: LAT(N4136.871) LONG(E00205.08) SPEED(0.0) RPT:214302
Mon Aug 20 20:43:48 2018 APRS[EA3ABN-7]Decoded GPS Auto: LAT(N4136.870) LONG(E00205.08) SPEED(0.0) RPT:214302
Mon Aug 20 20:44:48 2018 APRS[EA3ABN-7]Decoded GPS Auto: LAT(N4136.868) LONG(E00205.08) SPEED(0.0) RPT:214302
Mon Aug 20 20:45:48 2018 APRS[EA3ABN-7]Decoded GPS Auto: LAT(N4136.870) LONG(E00205.07) SPEED(0.0) RPT:214302
Mon Aug 20 20:46:48 2018 APRS[EA3ABN-7]Decoded GPS Auto: LAT(N4136.870) LONG(E00205.08) SPEED(0.0) RPT:214302
Tue Aug 21 04:07:46 2018 APRS[EA3HNX-7]Decoded GPS Auto: LAT(N4134.115) LONG(E00205.47) SPEED(0.1) RPT:214302
Tue Aug 21 04:08:07 2018 APRS[EA3HNX-7]Decoded GPS Auto: LAT(N4134.113) LONG(E00205.47) SPEED(0.0) RPT:214302
Tue Aug 21 04:10:33 2018 APRS[EA3HNX-7]Decoded GPS Auto: LAT(N4134.123) LONG(E00205.48) SPEED(0.0) RPT:214302
Mon Aug 20 20:21:49 2018 APRS[EA3ABN-7]Decoded GPS Auto: LAT(N4136.871) LONG(E00205.08) SPEED(0.0) RPT:214302
Mon Aug 20 20:22:49 2018 APRS[EA3ABN-7]Decoded GPS Auto: LAT(N4136.874) LONG(E00205.07) SPEED(0.0) RPT:214302
Mon Aug 20 20:23:50 2018 APRS[EA3ABN-7]Decoded GPS Auto: LAT(N4136.874) LONG(E00205.07) SPEED(0.0) RPT:214302